Norfolk, Virginia
Traffic Map
Current Weather Conditions
Norfolk, Virginia
Clear
Clear

Feels Like: 6°
Wind Chill: Ceiling: Unl
Heat Index: Visibility: 10mi
Dew Point: -2° Wind: 14mph
Humidity: 48% Direction: 40° (NE)
Pressure: 30.17in Gusts: 0mph
Raw Report DataKORF 011651Z AUTO 04012KT 10SM CLR 09/M02 A3017 RMK AO2 SLP214 T00891017 TSNO
Traffic Incident Summary
Active as of:
Severity:
Category:
InformationThere was an issue retrieving the traffic information for this location. Please try a different location or try again shortly.
Advertisements
Track Severe Weather on mobile